• Join FlightAware (Why Join?)
  • Login
  • US Flag 
06:24AM EST


 

Airport Tracker/Info


-or-


 

Live Flight TrackerFlight Track Log ✈ SWA127 ✈ 23-Oct-2013 ✈ KMDW - KMSY

Flight Track Log - Related Links

Times and Time Zones

All times are in EDT time to prevent confusion due to time zone crossing. See the SWA127 flight status page for this flight to view local times or setup timezone preferences in your user account.

Time Position Orientation Groundspeed Altitude Reporting Facility
EDT Latitude Longitude Course Direction KTS MPH feet Rate Location/Type
11:00AM 41.8000 -87.7833 244° Southwest 160 184 2,100  Level Chicago TRACON
11:00AM 41.7886 -87.8147 244° Southwest 199 229 2,500 1,320 Climbing Chicago Center
11:01AM 41.7331 -87.8631 213° Southwest 241 277 4,200 2,520 Climbing Chicago Center
11:02AM 41.6719 -87.9133 212° Southwest 249 287 7,700 3,720 Climbing Chicago Center
11:03AM 41.5811 -87.9539 198° South 286 329 11,900 3,180 Climbing Chicago Center
11:04AM 41.4944 -87.9917 198° South 325 374 14,300 2,700 Climbing Chicago Center
11:05AM 41.3969 -88.0361 199° South 351 404 17,600 2,820 Climbing Chicago Center
11:06AM 41.2919 -88.0692 193° South 371 427 20,200 2,400 Climbing Chicago Center
11:07AM 41.1850 -88.1028 193° South 391 450 22,600 2,340 Climbing Chicago Center
11:08AM 41.0714 -88.1353 192° South 410 472 25,000 2,100 Climbing Chicago Center
11:09AM 40.9539 -88.1675 192° South 425 489 27,000 1,740 Climbing Chicago Center
11:10AM 40.8342 -88.2014 192° South 435 501 28,700 1,500 Climbing Chicago Center
11:11AM 40.7094 -88.2375 192° South 452 520 30,200 1,680 Climbing Chicago Center
11:13AM 40.5572 -88.2803 192° South 466 536 32,200 1,740 Climbing Chicago Center
11:14AM 40.4308 -88.3153 192° South 465 535 33,800 1,500 Climbing Chicago Center
11:15AM 40.3064 -88.3514 192° South 461 531 35,300 1,380 Climbing Chicago Center
11:16AM 40.1831 -88.4058 199° South 453 521 36,700 1,020 Climbing Chicago Center
11:17AM 40.0664 -88.4581 199° South 446 513 37,400 600 Climbing Chicago Center
11:18AM 39.9467 -88.5097 198° South 450 518 38,000 300 Climbing Chicago Center
11:19AM 39.8506 -88.5519 199° South 446 513 38,000  Level Kansas City Center
11:20AM 39.7333 -88.6025 198° South 444 511 38,000  Level Kansas City Center
11:21AM 39.5931 -88.6625 198° South 442 509 38,000  Level Kansas City Center
11:22AM 39.4761 -88.7142 199° South 442 509 38,000  Level Kansas City Center
11:23AM 39.3672 -88.7592 198° South 442 509 38,000  Level Kansas City Center
11:24AM 39.2514 -88.8075 198° South 440 506 38,000  Level Kansas City Center
11:25AM 39.1136 -88.8667 198° South 436 502 38,000  Level Kansas City Center
11:26AM 38.9986 -88.9158 198° South 435 501 38,000  Level Kansas City Center
11:27AM 38.8842 -88.9639 198° South 433 498 38,000  Level Kansas City Center
11:28AM 38.7614 -89.0156 198° South 427 491 38,000  Level Kansas City Center
11:29AM 38.6386 -89.0667 198° South 429 494 38,000  Level Kansas City Center
11:30AM 38.5247 -89.1156 199° South 431 496 38,000  Level Kansas City Center
11:31AM 38.4092 -89.1617 197° South 433 498 38,000  Level Kansas City Center
11:32AM 38.2819 -89.1933 191° South 445 512 38,000  Level Kansas City Center
11:33AM 38.1594 -89.2244 191° South 447 514 38,000  Level Kansas City Center
11:34AM 38.0264 -89.2592 192° South 441 507 38,000  Level Kansas City Center
11:35AM 37.9067 -89.2883 191° South 439 505 38,000  Level Kansas City Center
11:36AM 37.7864 -89.3167 191° South 433 498 38,000  Level Kansas City Center
11:37AM 37.6672 -89.3439 190° South 432 497 38,000  Level Kansas City Center
11:38AM 37.5472 -89.3761 192° South 438 504 38,000  Level Kansas City Center
11:39AM 37.4281 -89.4047 191° South 437 503 38,000  Level Kansas City Center
11:40AM 37.3097 -89.4328 191° South 435 501 38,000  Level Kansas City Center
11:41AM 37.1672 -89.4708 192° South 436 502 38,000  Level Kansas City Center
11:42AM 37.0500 -89.5003 191° South 433 498 38,000  Level Kansas City Center
11:44AM 36.8875 -89.5400 191° South 427 491 38,000  Level Memphis Center
11:45AM 36.7703 -89.5686 191° South 429 494 38,000  Level Memphis Center
11:46AM 36.6525 -89.5964 191° South 432 497 38,000  Level Memphis Center
11:47AM 36.5103 -89.6306 191° South 436 502 38,000  Level Memphis Center
11:48AM 36.3931 -89.6589 191° South 436 502 38,000  Level Memphis Center
11:49AM 36.2747 -89.6878 191° South 437 503 38,000  Level Memphis Center
11:50AM 36.1553 -89.7147 190° South 438 504 38,000  Level Memphis Center
11:51AM 36.0128 -89.7492 191° South 437 503 38,000  Level Memphis Center
11:52AM 35.8942 -89.7778 191° South 435 501 38,000  Level Memphis Center
11:53AM 35.7750 -89.8053 191° South 436 502 38,000  Level Memphis Center
11:54AM 35.6556 -89.8333 191° South 432 497 38,000  Level Memphis Center
11:55AM 35.5378 -89.8619 191° South 429 494 38,000  Level Memphis Center
11:56AM 35.4211 -89.8889 191° South 425 489 38,000  Level Memphis Center
11:57AM 35.3042 -89.9164 191° South 425 489 38,000  Level Memphis Center
11:58AM 35.1703 -89.9469 191° South 419 482 38,000  Level Memphis Center
11:59AM 35.0558 -89.9744 191° South 419 482 38,000  Level Memphis Center
12:00PM 34.9417 -89.9997 190° South 417 480 38,000  Level Memphis Center
12:01PM 34.8261 -90.0208 189° South 420 483 38,000  Level Memphis Center
12:02PM 34.7106 -90.0428 189° South 421 484 38,000  Level Memphis Center
12:03PM 34.5756 -90.0692 189° South 420 483 38,000  Level Memphis Center
12:04PM 34.4589 -90.0903 188° South 420 483 38,000  Level Memphis Center
12:05PM 34.3428 -90.1131 189° South 420 483 38,000  Level Memphis Center
12:07PM 34.2264 -90.1353 189° South 419 482 38,000  Level Memphis Center
12:08PM 34.1089 -90.1569 189° South 422 486 38,000  Level Memphis Center
12:09PM 33.9919 -90.1800 189° South 421 484 38,000  Level Memphis Center
12:10PM 33.8564 -90.2056 189° South 419 482 38,000  Level Memphis Center
12:11PM 33.7428 -90.2264 189° South 419 482 38,000  Level Memphis Center
12:12PM 33.6286 -90.2483 189° South 418 481 38,000  Level Memphis Center
12:13PM 33.5144 -90.2697 189° South 420 483 38,000  Level Memphis Center
12:14PM 33.3972 -90.2803 184° South 424 488 38,000  Level Memphis Center
12:15PM 33.2553 -90.2756 178° South 429 494 38,000 -540 Level Memphis Center
12:16PM 33.1369 -90.2753 180° South 429 494 37,000 -960 Descending Memphis Center
12:17PM 33.0194 -90.2742 180° South 429 494 36,100 -960 Descending Memphis Center
12:18PM 32.9008 -90.2728 179° South 430 495 35,100 -540 Descending Memphis Center
12:19PM 32.7603 -90.2725 180° South 428 493 35,000 -60 Descending Memphis Center
12:20PM 32.6444 -90.2708 179° South 423 487 35,000  Level Memphis Center
12:21PM 32.5294 -90.2678 179° South 419 482 35,000  Level Memphis Center
12:22PM 32.4164 -90.2683 180° South 413 475 35,000  Level Memphis Center
12:23PM 32.3031 -90.2678 180° South 411 473 35,000  Level Memphis Center
12:24PM 32.1661 -90.2653 179° South 412 474 35,000 -540 Level Memphis Center
12:25PM 32.0536 -90.2647 180° South 409 471 34,000 -1,500 Descending Memphis Center
12:26PM 31.9422 -90.2644 180° South 405 466 32,000 -1,980 Descending Memphis Center
12:27PM 31.8372 -90.2628 179° South 390 449 30,000 -1,860 Descending Houston Center
12:28PM 31.7317 -90.2625 180° South 382 440 28,200 -1,020 Descending Houston Center
12:29PM 31.6028 -90.2606 179° South 386 444 28,000 -540 Descending Houston Center
12:30PM 31.4903 -90.2600 180° South 400 460 27,100 -1,320 Descending Houston Center
12:31PM 31.3825 -90.2600 180° South 392 451 25,300 -1,020 Descending Houston Center
12:32PM 31.2783 -90.2583 179° South 380 437 25,000 -540 Descending Houston Center
12:33PM 31.1725 -90.2486 176° South 380 437 24,200 -1,500 Descending Houston Center
12:34PM 31.0411 -90.2392 176° South 393 452 21,900 -2,280 Descending Houston Center
12:35PM 30.9283 -90.2311 176° South 403 464 19,600 -2,220 Descending Houston Center
12:37PM 30.8175 -90.2228 176° South 400 460 17,400 -2,280 Descending Houston Center
12:38PM 30.7072 -90.2150 177° South 400 460 14,900 -2,580 Descending Houston Center
12:38PM 30.6350 -90.2081 175° South 410 472 13,400 -2,160 Descending Houston Center
12:39PM 30.5939 -90.2061 178° South 408 470 12,700 -2,220 Descending Houston Center
12:39PM 30.5178 -90.2006 176° South 387 445 11,200 -2,040 Descending Houston Center
12:40PM 30.4697 -90.1964 176° South 386 444 10,600 -1,140 Descending Houston Center
12:40PM 30.4236 -90.1950 179° South 328 377 10,100 -1,080 Descending Houston Center
12:41PM 30.3811 -90.1900 174° South 351 404 9,500 -1,200 Descending Houston Center
12:41PM 30.3356 -90.1889 179° South 304 350 8,900 -1,500 Descending Houston Center
12:42PM 30.2969 -90.1831 173° South 320 368 8,000 -1,740 Descending Houston Center
12:42PM 30.2453 -90.1708 168° South 313 360 7,000 -1,560 Descending Houston Center
12:43PM 30.2122 -90.1642 170° South 312 359 6,400 -1,020 Descending Houston Center
12:43PM 30.1528 -90.1556 173° South 312 359 6,000 -420 Descending Houston Center
12:44PM 30.1278 -90.1503 170° South 311 358 6,000  Level Houston Center
12:44PM 30.0814 -90.1439 173° South 306 352 6,000 -240 Level Houston Center
12:45PM 30.0286 -90.1353 172° South 306 352 5,800 -600 Descending Houston Center
12:45PM 29.9953 -90.1306 173° South 280 322 5,400 -960 Descending Houston Center
12:46PM 29.9533 -90.1236 172° South 291 335 4,800 -900 Descending Houston Center
12:46PM 29.9197 -90.1169 170° South 268 308 4,500 -720 Descending Houston Center
12:47PM 29.8814 -90.1097 171° South 276 318 4,100 -600 Descending Houston Center
12:47PM 29.8611 -90.1147 192° South 250 288 4,000 -600 Descending Houston Center
12:48PM 29.8389 -90.1522 236° Southwest 239 275 3,500 -720 Descending Houston Center
12:48PM 29.8314 -90.1733 248° West 181 208 3,300 -720 Descending Houston Center
12:49PM 29.8300 -90.2103 268° West 202 232 2,800 -900 Descending Houston Center
12:49PM 29.8372 -90.2258 298° West 150 173 2,400 -780 Descending Houston Center
12:50PM 29.8642 -90.2567 315° West 184 212 2,000 -420 Descending Houston Center
12:50PM 29.8678 -90.2631 303° West 163 188 2,000 -300 Level Houston Center
12:51PM 29.8992 -90.2819 332° Northwest 166 191 1,700 -420 Descending Houston Center
12:51PM 29.9058 -90.2783 25° Northeast 156 180 1,600 -720 Descending Houston Center
12:52PM 29.9353 -90.2692 15° North 144 166 1,000 -600 Descending Houston Center
12:52PM 29.9408 -90.2650 33° Northeast 129 148 1,000 -660 Level Houston Center
12:53PM 29.9719 -90.2564 13° North 129 148 300 -780 Descending Houston Center